sensor_id;sensor_type;location;lat;lon;timestamp;pressure;altitude;pressure_sealevel;temperature;humidity
17209;BME280;8720;48.488;9.202;2022-12-18T00:01:25;98075.66;;;-4.96;54.14
17209;BME280;8720;48.488;9.202;2022-12-18T00:03:55;98089.06;;;-5.00;54.32
17209;BME280;8720;48.488;9.202;2022-12-18T00:06:26;98086.31;;;-5.03;54.21
17209;BME280;8720;48.488;9.202;2022-12-18T00:08:56;98092.16;;;-5.05;54.25
17209;BME280;8720;48.488;9.202;2022-12-18T00:11:27;98092.03;;;-5.07;54.17
17209;BME280;8720;48.488;9.202;2022-12-18T00:13:58;98097.00;;;-5.10;54.36
17209;BME280;8720;48.488;9.202;2022-12-18T00:16:27;98095.97;;;-5.13;54.25
17209;BME280;8720;48.488;9.202;2022-12-18T00:18:57;98103.69;;;-5.12;54.34
17209;BME280;8720;48.488;9.202;2022-12-18T00:21:26;98089.09;;;-5.14;54.27
17209;BME280;8720;48.488;9.202;2022-12-18T00:23:56;98091.50;;;-5.17;54.16
17209;BME280;8720;48.488;9.202;2022-12-18T00:26:27;98082.06;;;-5.18;54.29
17209;BME280;8720;48.488;9.202;2022-12-18T00:29:00;98093.88;;;-5.20;54.30
17209;BME280;8720;48.488;9.202;2022-12-18T00:31:30;98087.81;;;-5.22;53.92
17209;BME280;8720;48.488;9.202;2022-12-18T00:33:59;98086.56;;;-5.30;54.00
17209;BME280;8720;48.488;9.202;2022-12-18T00:36:29;98084.84;;;-5.30;54.00
17209;BME280;8720;48.488;9.202;2022-12-18T00:39:01;98083.47;;;-5.39;53.90
17209;BME280;8720;48.488;9.202;2022-12-18T00:41:29;98098.97;;;-5.36;54.00
17209;BME280;8720;48.488;9.202;2022-12-18T00:44:15;98110.47;;;-5.43;53.92
17209;BME280;8720;48.488;9.202;2022-12-18T00:46:44;98105.94;;;-5.48;54.08
17209;BME280;8720;48.488;9.202;2022-12-18T00:49:11;98102.50;;;-5.49;53.88
17209;BME280;8720;48.488;9.202;2022-12-18T00:51:39;98097.25;;;-5.52;53.95
17209;BME280;8720;48.488;9.202;2022-12-18T00:54:07;98096.22;;;-5.56;53.96
17209;BME280;8720;48.488;9.202;2022-12-18T00:56:36;98088.38;;;-5.59;53.83
17209;BME280;8720;48.488;9.202;2022-12-18T00:59:04;98084.09;;;-5.60;53.63
17209;BME280;8720;48.488;9.202;2022-12-18T01:01:32;98086.31;;;-5.66;53.76
17209;BME280;8720;48.488;9.202;2022-12-18T01:04:00;98085.00;;;-5.74;53.63
17209;BME280;8720;48.488;9.202;2022-12-18T01:06:28;98101.50;;;-5.67;53.75
17209;BME280;8720;48.488;9.202;2022-12-18T01:08:55;98105.53;;;-5.71;53.86
17209;BME280;8720;48.488;9.202;2022-12-18T01:11:25;98102.91;;;-5.72;53.70
17209;BME280;8720;48.488;9.202;2022-12-18T01:13:53;98107.94;;;-5.74;53.82
17209;BME280;8720;48.488;9.202;2022-12-18T01:16:22;98106.97;;;-5.76;53.71
17209;BME280;8720;48.488;9.202;2022-12-18T01:18:52;98103.44;;;-5.78;53.56
17209;BME280;8720;48.488;9.202;2022-12-18T01:21:21;98110.13;;;-5.80;53.78
17209;BME280;8720;48.488;9.202;2022-12-18T01:23:52;98110.81;;;-5.82;53.95
17209;BME280;8720;48.488;9.202;2022-12-18T01:26:20;98111.59;;;-5.85;53.79
17209;BME280;8720;48.488;9.202;2022-12-18T01:28:49;98113.16;;;-5.87;53.76
17209;BME280;8720;48.488;9.202;2022-12-18T01:31:19;98087.63;;;-6.03;53.66
17209;BME280;8720;48.488;9.202;2022-12-18T01:33:47;98114.66;;;-5.90;53.67
17209;BME280;8720;48.488;9.202;2022-12-18T01:36:19;98115.38;;;-5.93;53.47
17209;BME280;8720;48.488;9.202;2022-12-18T01:38:47;98113.50;;;-5.95;53.58
17209;BME280;8720;48.488;9.202;2022-12-18T01:41:18;98111.78;;;-5.96;53.68
17209;BME280;8720;48.488;9.202;2022-12-18T01:43:53;98113.44;;;-5.97;53.73
17209;BME280;8720;48.488;9.202;2022-12-18T01:46:23;98108.00;;;-6.03;53.67
17209;BME280;8720;48.488;9.202;2022-12-18T01:48:56;98115.91;;;-5.98;53.56
17209;BME280;8720;48.488;9.202;2022-12-18T01:51:25;98113.34;;;-5.98;53.68
17209;BME280;8720;48.488;9.202;2022-12-18T01:53:53;98109.03;;;-5.99;53.66
17209;BME280;8720;48.488;9.202;2022-12-18T01:56:21;98098.78;;;-6.01;53.64
17209;BME280;8720;48.488;9.202;2022-12-18T01:58:58;98116.88;;;-5.96;53.65
17209;BME280;8720;48.488;9.202;2022-12-18T02:01:29;98121.22;;;-5.94;53.81
17209;BME280;8720;48.488;9.202;2022-12-18T02:04:20;98099.19;;;-5.93;54.07
17209;BME280;8720;48.488;9.202;2022-12-18T02:06:53;98096.91;;;-5.89;53.93
17209;BME280;8720;48.488;9.202;2022-12-18T02:09:29;98092.88;;;-5.85;54.08
17209;BME280;8720;48.488;9.202;2022-12-18T02:12:04;98091.41;;;-5.80;54.04
17209;BME280;8720;48.488;9.202;2022-12-18T02:14:41;98096.63;;;-5.79;54.11
17209;BME280;8720;48.488;9.202;2022-12-18T02:17:17;98106.06;;;-5.76;54.26
17209;BME280;8720;48.488;9.202;2022-12-18T02:20:01;98113.00;;;-5.74;54.12
17209;BME280;8720;48.488;9.202;2022-12-18T02:22:44;98107.13;;;-5.73;54.26
17209;BME280;8720;48.488;9.202;2022-12-18T02:25:35;98100.28;;;-5.74;54.38
17209;BME280;8720;48.488;9.202;2022-12-18T02:28:13;98103.78;;;-5.72;54.36
17209;BME280;8720;48.488;9.202;2022-12-18T02:30:45;98121.00;;;-5.68;54.52
17209;BME280;8720;48.488;9.202;2022-12-18T02:33:15;98111.78;;;-5.66;54.36
17209;BME280;8720;48.488;9.202;2022-12-18T02:35:45;98105.97;;;-5.63;54.44
17209;BME280;8720;48.488;9.202;2022-12-18T02:38:14;98114.56;;;-5.61;54.63
17209;BME280;8720;48.488;9.202;2022-12-18T02:40:46;98115.44;;;-5.61;54.31
17209;BME280;8720;48.488;9.202;2022-12-18T02:43:18;98125.03;;;-5.57;54.14
17209;BME280;8720;48.488;9.202;2022-12-18T02:45:49;98127.84;;;-5.52;54.27
17209;BME280;8720;48.488;9.202;2022-12-18T02:48:23;98130.38;;;-5.52;54.32
17209;BME280;8720;48.488;9.202;2022-12-18T02:51:00;98127.56;;;-5.57;54.10
17209;BME280;8720;48.488;9.202;2022-12-18T02:53:38;98133.09;;;-5.49;53.98
17209;BME280;8720;48.488;9.202;2022-12-18T02:56:14;98128.06;;;-5.47;54.18
17209;BME280;8720;48.488;9.202;2022-12-18T02:58:56;98136.59;;;-5.47;53.85
17209;BME280;8720;48.488;9.202;2022-12-18T03:01:49;98145.81;;;-5.49;54.24
17209;BME280;8720;48.488;9.202;2022-12-18T03:04:26;98147.50;;;-5.49;54.01
17209;BME280;8720;48.488;9.202;2022-12-18T03:06:59;98144.00;;;-5.51;54.00
17209;BME280;8720;48.488;9.202;2022-12-18T03:09:33;98130.31;;;-5.53;54.06
17209;BME280;8720;48.488;9.202;2022-12-18T03:12:10;98125.19;;;-5.53;54.04
17209;BME280;8720;48.488;9.202;2022-12-18T03:15:01;98103.66;;;-5.59;54.06
17209;BME280;8720;48.488;9.202;2022-12-18T03:17:33;98114.13;;;-5.54;54.01
17209;BME280;8720;48.488;9.202;2022-12-18T03:20:07;98115.63;;;-5.58;54.06
17209;BME280;8720;48.488;9.202;2022-12-18T03:22:38;98119.75;;;-5.60;53.79
17209;BME280;8720;48.488;9.202;2022-12-18T03:25:11;98119.66;;;-5.61;54.06
17209;BME280;8720;48.488;9.202;2022-12-18T03:27:46;98128.91;;;-5.63;53.87
17209;BME280;8720;48.488;9.202;2022-12-18T03:30:18;98124.66;;;-5.63;54.14
17209;BME280;8720;48.488;9.202;2022-12-18T03:32:52;98126.25;;;-5.65;54.05
17209;BME280;8720;48.488;9.202;2022-12-18T03:35:26;98138.31;;;-5.62;54.11
17209;BME280;8720;48.488;9.202;2022-12-18T03:37:56;98117.84;;;-5.64;54.19
17209;BME280;8720;48.488;9.202;2022-12-18T03:40:35;98134.72;;;-5.66;54.21
17209;BME280;8720;48.488;9.202;2022-12-18T03:43:16;98132.78;;;-5.70;54.26
17209;BME280;8720;48.488;9.202;2022-12-18T03:45:53;98129.97;;;-5.74;54.45
17209;BME280;8720;48.488;9.202;2022-12-18T03:48:30;98121.34;;;-5.76;54.34
17209;BME280;8720;48.488;9.202;2022-12-18T03:51:10;98134.91;;;-5.77;54.28
17209;BME280;8720;48.488;9.202;2022-12-18T03:53:48;98129.00;;;-5.76;54.45
17209;BME280;8720;48.488;9.202;2022-12-18T03:56:25;98131.66;;;-5.75;54.35
17209;BME280;8720;48.488;9.202;2022-12-18T03:58:55;98136.91;;;-5.72;54.28
17209;BME280;8720;48.488;9.202;2022-12-18T04:01:31;98143.75;;;-5.71;54.31
17209;BME280;8720;48.488;9.202;2022-12-18T04:04:03;98140.50;;;-5.68;54.24
17209;BME280;8720;48.488;9.202;2022-12-18T04:06:36;98138.91;;;-5.66;54.13
17209;BME280;8720;48.488;9.202;2022-12-18T04:09:05;98137.19;;;-5.67;54.10
17209;BME280;8720;48.488;9.202;2022-12-18T04:11:37;98130.22;;;-5.70;54.05
17209;BME280;8720;48.488;9.202;2022-12-18T04:14:06;98129.28;;;-5.72;54.22
17209;BME280;8720;48.488;9.202;2022-12-18T04:16:35;98115.41;;;-5.77;53.90
17209;BME280;8720;48.488;9.202;2022-12-18T04:19:05;98125.75;;;-5.74;53.91
17209;BME280;8720;48.488;9.202;2022-12-18T04:21:38;98129.72;;;-5.79;54.10
17209;BME280;8720;48.488;9.202;2022-12-18T04:24:06;98141.94;;;-5.73;53.90
17209;BME280;8720;48.488;9.202;2022-12-18T04:26:36;98148.84;;;-5.71;54.07
17209;BME280;8720;48.488;9.202;2022-12-18T04:29:16;98150.69;;;-5.68;53.79
17209;BME280;8720;48.488;9.202;2022-12-18T04:31:45;98138.75;;;-5.69;54.09
17209;BME280;8720;48.488;9.202;2022-12-18T04:34:12;98141.38;;;-5.68;54.00
17209;BME280;8720;48.488;9.202;2022-12-18T04:36:47;98136.28;;;-5.68;53.92
17209;BME280;8720;48.488;9.202;2022-12-18T04:39:15;98132.09;;;-5.67;53.92
17209;BME280;8720;48.488;9.202;2022-12-18T04:41:47;98135.41;;;-5.68;53.92
17209;BME280;8720;48.488;9.202;2022-12-18T04:44:14;98147.38;;;-5.67;54.25
17209;BME280;8720;48.488;9.202;2022-12-18T04:46:41;98149.91;;;-5.67;54.00
17209;BME280;8720;48.488;9.202;2022-12-18T04:49:11;98155.09;;;-5.66;54.21
17209;BME280;8720;48.488;9.202;2022-12-18T04:51:38;98150.97;;;-5.64;54.21
17209;BME280;8720;48.488;9.202;2022-12-18T04:54:05;98156.13;;;-5.62;54.18
17209;BME280;8720;48.488;9.202;2022-12-18T04:56:32;98141.72;;;-5.62;54.19
17209;BME280;8720;48.488;9.202;2022-12-18T04:59:00;98128.19;;;-5.61;54.24
17209;BME280;8720;48.488;9.202;2022-12-18T05:01:27;98135.91;;;-5.59;54.09
17209;BME280;8720;48.488;9.202;2022-12-18T05:03:54;98132.59;;;-5.58;54.13
17209;BME280;8720;48.488;9.202;2022-12-18T05:06:23;98112.19;;;-5.58;53.87
17209;BME280;8720;48.488;9.202;2022-12-18T05:08:50;98095.13;;;-5.59;53.97
17209;BME280;8720;48.488;9.202;2022-12-18T05:11:17;98094.09;;;-5.63;53.72
17209;BME280;8720;48.488;9.202;2022-12-18T05:13:45;98113.38;;;-5.68;53.79
17209;BME280;8720;48.488;9.202;2022-12-18T05:16:14;98113.97;;;-5.72;53.56
17209;BME280;8720;48.488;9.202;2022-12-18T05:18:41;98085.56;;;-5.94;53.77
17209;BME280;8720;48.488;9.202;2022-12-18T05:21:09;98098.97;;;-5.82;53.49
17209;BME280;8720;48.488;9.202;2022-12-18T05:23:37;98111.72;;;-5.82;53.72
17209;BME280;8720;48.488;9.202;2022-12-18T05:26:06;98121.00;;;-5.82;53.93
17209;BME280;8720;48.488;9.202;2022-12-18T05:28:35;98112.97;;;-5.90;53.95
17209;BME280;8720;48.488;9.202;2022-12-18T05:31:04;98119.31;;;-5.83;53.87
17209;BME280;8720;48.488;9.202;2022-12-18T05:33:34;98123.50;;;-5.84;53.71
17209;BME280;8720;48.488;9.202;2022-12-18T05:36:03;98122.63;;;-5.84;53.59
17209;BME280;8720;48.488;9.202;2022-12-18T05:38:34;98118.25;;;-5.87;53.45
17209;BME280;8720;48.488;9.202;2022-12-18T05:41:04;98120.72;;;-5.88;53.56
17209;BME280;8720;48.488;9.202;2022-12-18T05:43:34;98134.31;;;-5.88;53.46
17209;BME280;8720;48.488;9.202;2022-12-18T05:46:04;98135.13;;;-5.89;53.12
17209;BME280;8720;48.488;9.202;2022-12-18T05:48:32;98131.59;;;-5.91;53.42
17209;BME280;8720;48.488;9.202;2022-12-18T05:51:07;98125.56;;;-5.93;53.25
17209;BME280;8720;48.488;9.202;2022-12-18T05:53:36;98129.53;;;-5.98;53.25
17209;BME280;8720;48.488;9.202;2022-12-18T05:56:08;98120.09;;;-5.99;53.24
17209;BME280;8720;48.488;9.202;2022-12-18T05:58:36;98127.75;;;-5.99;53.06
17209;BME280;8720;48.488;9.202;2022-12-18T06:01:09;98133.53;;;-6.01;53.38
17209;BME280;8720;48.488;9.202;2022-12-18T06:03:37;98127.41;;;-6.05;53.09
17209;BME280;8720;48.488;9.202;2022-12-18T06:06:14;98121.34;;;-6.07;53.24
17209;BME280;8720;48.488;9.202;2022-12-18T06:08:41;98114.31;;;-6.11;53.32
17209;BME280;8720;48.488;9.202;2022-12-18T06:11:10;98121.72;;;-6.15;53.22
17209;BME280;8720;48.488;9.202;2022-12-18T06:13:37;98127.03;;;-6.11;53.47
17209;BME280;8720;48.488;9.202;2022-12-18T06:16:06;98110.03;;;-6.12;53.31
17209;BME280;8720;48.488;9.202;2022-12-18T06:18:34;98106.59;;;-6.12;53.47
17209;BME280;8720;48.488;9.202;2022-12-18T06:21:05;98128.63;;;-6.13;53.31
17209;BME280;8720;48.488;9.202;2022-12-18T06:23:32;98123.53;;;-6.13;53.63
17209;BME280;8720;48.488;9.202;2022-12-18T06:26:03;98127.56;;;-6.16;53.31
17209;BME280;8720;48.488;9.202;2022-12-18T06:28:32;98136.78;;;-6.18;53.44
17209;BME280;8720;48.488;9.202;2022-12-18T06:30:59;98136.72;;;-6.20;53.56
17209;BME280;8720;48.488;9.202;2022-12-18T06:33:28;98146.97;;;-6.18;53.54
17209;BME280;8720;48.488;9.202;2022-12-18T06:36:01;98151.38;;;-6.16;53.64
17209;BME280;8720;48.488;9.202;2022-12-18T06:38:28;98153.03;;;-6.16;53.43
17209;BME280;8720;48.488;9.202;2022-12-18T06:40:55;98166.66;;;-6.16;53.54
17209;BME280;8720;48.488;9.202;2022-12-18T06:43:23;98176.81;;;-6.16;53.69
17209;BME280;8720;48.488;9.202;2022-12-18T06:45:59;98170.94;;;-6.15;53.50
17209;BME280;8720;48.488;9.202;2022-12-18T06:48:26;98173.59;;;-6.13;53.44
17209;BME280;8720;48.488;9.202;2022-12-18T06:50:54;98179.38;;;-6.16;53.26
17209;BME280;8720;48.488;9.202;2022-12-18T06:53:21;98174.28;;;-6.16;53.53
17209;BME280;8720;48.488;9.202;2022-12-18T06:55:48;98181.84;;;-6.17;53.42
17209;BME280;8720;48.488;9.202;2022-12-18T06:58:16;98182.53;;;-6.20;53.55
17209;BME280;8720;48.488;9.202;2022-12-18T07:00:44;98185.16;;;-6.18;53.56
17209;BME280;8720;48.488;9.202;2022-12-18T07:03:12;98192.03;;;-6.17;53.46
17209;BME280;8720;48.488;9.202;2022-12-18T07:05:40;98197.97;;;-6.17;53.41
17209;BME280;8720;48.488;9.202;2022-12-18T07:08:07;98194.72;;;-6.14;53.26
17209;BME280;8720;48.488;9.202;2022-12-18T07:10:41;98179.28;;;-6.17;53.44
17209;BME280;8720;48.488;9.202;2022-12-18T07:13:09;98190.59;;;-6.12;53.25
17209;BME280;8720;48.488;9.202;2022-12-18T07:15:37;98192.53;;;-6.08;53.25
17209;BME280;8720;48.488;9.202;2022-12-18T07:18:04;98194.41;;;-6.06;53.31
17209;BME280;8720;48.488;9.202;2022-12-18T07:20:33;98192.03;;;-6.03;53.10
17209;BME280;8720;48.488;9.202;2022-12-18T07:23:02;98202.41;;;-6.00;53.54
17209;BME280;8720;48.488;9.202;2022-12-18T07:25:29;98202.56;;;-5.97;53.36
17209;BME280;8720;48.488;9.202;2022-12-18T07:27:56;98202.84;;;-5.92;53.27
17209;BME280;8720;48.488;9.202;2022-12-18T07:30:24;98200.38;;;-5.91;53.37
17209;BME280;8720;48.488;9.202;2022-12-18T07:32:51;98203.09;;;-5.88;53.20
17209;BME280;8720;48.488;9.202;2022-12-18T07:35:18;98204.13;;;-5.84;53.46
17209;BME280;8720;48.488;9.202;2022-12-18T07:37:47;98206.94;;;-5.80;53.55
17209;BME280;8720;48.488;9.202;2022-12-18T07:40:14;98217.38;;;-5.75;53.41
17209;BME280;8720;48.488;9.202;2022-12-18T07:42:42;98206.47;;;-5.73;53.43
17209;BME280;8720;48.488;9.202;2022-12-18T07:45:09;98199.03;;;-5.70;53.33
17209;BME280;8720;48.488;9.202;2022-12-18T07:47:37;98190.75;;;-5.66;53.67
17209;BME280;8720;48.488;9.202;2022-12-18T07:50:05;98191.81;;;-5.62;53.50
17209;BME280;8720;48.488;9.202;2022-12-18T07:52:33;98190.22;;;-5.60;53.50
17209;BME280;8720;48.488;9.202;2022-12-18T07:55:01;98189.41;;;-5.59;53.62
17209;BME280;8720;48.488;9.202;2022-12-18T07:57:29;98191.13;;;-5.60;53.74
17209;BME280;8720;48.488;9.202;2022-12-18T07:59:56;98194.63;;;-5.58;53.65
17209;BME280;8720;48.488;9.202;2022-12-18T08:02:23;98199.88;;;-5.55;53.60
17209;BME280;8720;48.488;9.202;2022-12-18T08:04:51;98199.97;;;-5.53;53.66
17209;BME280;8720;48.488;9.202;2022-12-18T08:07:18;98202.63;;;-5.51;53.34
17209;BME280;8720;48.488;9.202;2022-12-18T08:09:45;98201.91;;;-5.49;53.73
17209;BME280;8720;48.488;9.202;2022-12-18T08:12:14;98199.53;;;-5.46;53.63
17209;BME280;8720;48.488;9.202;2022-12-18T08:14:41;98209.72;;;-5.46;53.54
17209;BME280;8720;48.488;9.202;2022-12-18T08:17:11;98202.16;;;-5.44;53.79
17209;BME280;8720;48.488;9.202;2022-12-18T08:19:38;98204.03;;;-5.42;53.56
17209;BME280;8720;48.488;9.202;2022-12-18T08:22:05;98208.38;;;-5.39;53.72
17209;BME280;8720;48.488;9.202;2022-12-18T08:24:32;98216.31;;;-5.35;53.78
17209;BME280;8720;48.488;9.202;2022-12-18T08:27:00;98220.78;;;-5.31;53.93
17209;BME280;8720;48.488;9.202;2022-12-18T08:29:28;98214.09;;;-5.29;53.92
17209;BME280;8720;48.488;9.202;2022-12-18T08:31:56;98216.03;;;-5.25;53.92
17209;BME280;8720;48.488;9.202;2022-12-18T08:34:23;98223.84;;;-5.22;54.22
17209;BME280;8720;48.488;9.202;2022-12-18T08:36:51;98215.47;;;-5.19;54.02
17209;BME280;8720;48.488;9.202;2022-12-18T08:39:18;98209.69;;;-5.17;54.24
17209;BME280;8720;48.488;9.202;2022-12-18T08:41:45;98212.47;;;-5.12;54.13
17209;BME280;8720;48.488;9.202;2022-12-18T08:44:34;98221.28;;;-5.07;54.22
17209;BME280;8720;48.488;9.202;2022-12-18T08:47:04;98222.31;;;-5.04;54.35
17209;BME280;8720;48.488;9.202;2022-12-18T08:49:32;98222.53;;;-4.99;54.39
17209;BME280;8720;48.488;9.202;2022-12-18T08:52:00;98220.25;;;-4.95;54.39
17209;BME280;8720;48.488;9.202;2022-12-18T08:54:29;98221.06;;;-4.96;54.57
17209;BME280;8720;48.488;9.202;2022-12-18T08:56:57;98217.34;;;-4.86;54.52
17209;BME280;8720;48.488;9.202;2022-12-18T08:59:24;98212.00;;;-4.75;54.80
17209;BME280;8720;48.488;9.202;2022-12-18T09:01:56;98215.13;;;-4.64;54.61
17209;BME280;8720;48.488;9.202;2022-12-18T09:04:23;98196.00;;;-4.56;54.83
17209;BME280;8720;48.488;9.202;2022-12-18T09:06:51;98193.84;;;-4.48;54.97
17209;BME280;8720;48.488;9.202;2022-12-18T09:09:21;98194.41;;;-4.38;54.82
17209;BME280;8720;48.488;9.202;2022-12-18T09:11:48;98193.09;;;-4.30;55.12
17209;BME280;8720;48.488;9.202;2022-12-18T09:14:15;98184.97;;;-4.23;54.87
17209;BME280;8720;48.488;9.202;2022-12-18T09:16:43;98182.81;;;-4.15;55.08
17209;BME280;8720;48.488;9.202;2022-12-18T09:19:12;98177.94;;;-4.11;55.09
17209;BME280;8720;48.488;9.202;2022-12-18T09:21:39;98191.81;;;-4.06;55.48
17209;BME280;8720;48.488;9.202;2022-12-18T09:24:11;98169.78;;;-4.04;55.34
17209;BME280;8720;48.488;9.202;2022-12-18T09:26:41;98169.50;;;-3.92;55.49
17209;BME280;8720;48.488;9.202;2022-12-18T09:29:08;98164.84;;;-3.83;55.39
17209;BME280;8720;48.488;9.202;2022-12-18T09:31:36;98151.66;;;-3.75;55.75
17209;BME280;8720;48.488;9.202;2022-12-18T09:34:04;98165.69;;;-3.66;55.90
17209;BME280;8720;48.488;9.202;2022-12-18T09:36:33;98166.84;;;-3.60;55.99
17209;BME280;8720;48.488;9.202;2022-12-18T09:39:01;98155.91;;;-3.57;55.75
17209;BME280;8720;48.488;9.202;2022-12-18T09:41:43;98154.44;;;-3.52;55.95
17209;BME280;8720;48.488;9.202;2022-12-18T09:44:23;98150.28;;;-3.50;56.15
17209;BME280;8720;48.488;9.202;2022-12-18T09:47:02;98156.69;;;-3.41;56.39
17209;BME280;8720;48.488;9.202;2022-12-18T09:49:39;98158.31;;;-3.25;57.33
17209;BME280;8720;48.488;9.202;2022-12-18T09:52:17;98157.56;;;-3.05;57.32
17209;BME280;8720;48.488;9.202;2022-12-18T09:54:52;98154.16;;;-2.87;57.61
17209;BME280;8720;48.488;9.202;2022-12-18T09:57:23;98148.94;;;-2.70;57.67
17209;BME280;8720;48.488;9.202;2022-12-18T10:00:03;98148.00;;;-2.53;57.65
17209;BME280;8720;48.488;9.202;2022-12-18T10:02:37;98156.28;;;-2.40;57.81
17209;BME280;8720;48.488;9.202;2022-12-18T10:05:10;98149.81;;;-2.32;57.45
17209;BME280;8720;48.488;9.202;2022-12-18T10:07:57;98151.16;;;-2.21;57.69
17209;BME280;8720;48.488;9.202;2022-12-18T10:10:38;98155.88;;;-2.11;57.52
17209;BME280;8720;48.488;9.202;2022-12-18T10:13:22;98151.19;;;-2.00;57.35
17209;BME280;8720;48.488;9.202;2022-12-18T10:16:10;98161.09;;;-1.89;57.55
17209;BME280;8720;48.488;9.202;2022-12-18T10:19:15;98162.50;;;-1.76;57.77
17209;BME280;8720;48.488;9.202;2022-12-18T10:21:56;98163.00;;;-1.64;57.99
17209;BME280;8720;48.488;9.202;2022-12-18T10:24:36;98168.56;;;-1.53;58.12
17209;BME280;8720;48.488;9.202;2022-12-18T10:27:14;98174.06;;;-1.44;57.76
17209;BME280;8720;48.488;9.202;2022-12-18T10:29:43;98172.81;;;-1.33;57.92
17209;BME280;8720;48.488;9.202;2022-12-18T10:32:17;98164.59;;;-1.25;57.72
17209;BME280;8720;48.488;9.202;2022-12-18T10:34:46;98164.16;;;-1.15;57.62
17209;BME280;8720;48.488;9.202;2022-12-18T10:37:18;98166.25;;;-1.05;57.47
17209;BME280;8720;48.488;9.202;2022-12-18T10:40:06;98159.84;;;-0.94;57.67
17209;BME280;8720;48.488;9.202;2022-12-18T10:42:34;98153.38;;;-0.84;57.64
17209;BME280;8720;48.488;9.202;2022-12-18T10:45:11;98161.53;;;-0.72;57.98
17209;BME280;8720;48.488;9.202;2022-12-18T10:47:43;98156.00;;;-0.60;57.74
17209;BME280;8720;48.488;9.202;2022-12-18T10:50:25;98156.44;;;-0.48;57.92
17209;BME280;8720;48.488;9.202;2022-12-18T10:52:55;98156.88;;;-0.36;58.13
17209;BME280;8720;48.488;9.202;2022-12-18T10:55:31;98149.59;;;-0.24;58.23
17209;BME280;8720;48.488;9.202;2022-12-18T10:58:19;98141.47;;;-0.13;58.44
17209;BME280;8720;48.488;9.202;2022-12-18T11:01:08;98145.25;;;-0.02;58.06
17209;BME280;8720;48.488;9.202;2022-12-18T11:03:38;98158.56;;;0.11;58.26
17209;BME280;8720;48.488;9.202;2022-12-18T11:06:09;98152.03;;;0.20;58.25
17209;BME280;8720;48.488;9.202;2022-12-18T11:08:38;98139.44;;;0.28;58.24
17209;BME280;8720;48.488;9.202;2022-12-18T11:11:20;98142.56;;;0.44;58.55
17209;BME280;8720;48.488;9.202;2022-12-18T11:14:03;98126.69;;;0.57;58.70
17209;BME280;8720;48.488;9.202;2022-12-18T11:16:36;98134.81;;;0.69;58.58
17209;BME280;8720;48.488;9.202;2022-12-18T11:19:23;98118.88;;;0.81;58.78
17209;BME280;8720;48.488;9.202;2022-12-18T11:21:52;98114.13;;;0.94;58.90
17209;BME280;8720;48.488;9.202;2022-12-18T11:24:26;98109.34;;;1.07;58.85
17209;BME280;8720;48.488;9.202;2022-12-18T11:26:58;98103.72;;;1.20;59.11
17209;BME280;8720;48.488;9.202;2022-12-18T11:29:34;98091.25;;;1.33;59.31
17209;BME280;8720;48.488;9.202;2022-12-18T11:32:26;98089.94;;;1.47;59.31
17209;BME280;8720;48.488;9.202;2022-12-18T11:35:04;98084.22;;;1.57;59.68
17209;BME280;8720;48.488;9.202;2022-12-18T11:37:36;98090.78;;;1.77;60.10
17209;BME280;8720;48.488;9.202;2022-12-18T11:40:13;98092.13;;;1.95;60.35
17209;BME280;8720;48.488;9.202;2022-12-18T11:42:49;98100.25;;;2.08;60.28
17209;BME280;8720;48.488;9.202;2022-12-18T11:45:30;98087.75;;;2.25;60.42
17209;BME280;8720;48.488;9.202;2022-12-18T11:48:08;98083.84;;;2.40;60.43
17209;BME280;8720;48.488;9.202;2022-12-18T11:50:49;98081.63;;;2.55;60.29
17209;BME280;8720;48.488;9.202;2022-12-18T11:53:18;98080.16;;;2.66;60.34
17209;BME280;8720;48.488;9.202;2022-12-18T11:56:16;98090.75;;;2.75;59.95
17209;BME280;8720;48.488;9.202;2022-12-18T11:58:54;98080.50;;;2.80;60.11
17209;BME280;8720;48.488;9.202;2022-12-18T12:01:42;98078.06;;;2.86;59.80
17209;BME280;8720;48.488;9.202;2022-12-18T12:04:56;98074.69;;;2.90;59.77
17209;BME280;8720;48.488;9.202;2022-12-18T12:07:40;98075.63;;;2.94;59.49
17209;BME280;8720;48.488;9.202;2022-12-18T12:10:25;98068.88;;;2.99;59.36
17209;BME280;8720;48.488;9.202;2022-12-18T12:13:23;98061.22;;;3.03;59.57
17209;BME280;8720;48.488;9.202;2022-12-18T12:16:11;98062.13;;;3.07;59.53
17209;BME280;8720;48.488;9.202;2022-12-18T12:18:55;98053.63;;;3.11;59.36
17209;BME280;8720;48.488;9.202;2022-12-18T12:21:36;98044.97;;;3.09;59.40
17209;BME280;8720;48.488;9.202;2022-12-18T12:24:26;98056.38;;;3.18;59.45
17209;BME280;8720;48.488;9.202;2022-12-18T12:27:07;98048.78;;;3.26;59.49
17209;BME280;8720;48.488;9.202;2022-12-18T12:29:58;98045.47;;;3.31;59.69
17209;BME280;8720;48.488;9.202;2022-12-18T12:33:07;98043.88;;;3.39;59.52
17209;BME280;8720;48.488;9.202;2022-12-18T12:35:51;98040.50;;;3.43;59.55
17209;BME280;8720;48.488;9.202;2022-12-18T12:38:37;97966.41;;;3.01;59.38
17209;BME280;8720;48.488;9.202;2022-12-18T12:41:12;98039.94;;;3.56;59.39
17209;BME280;8720;48.488;9.202;2022-12-18T12:43:58;98043.50;;;3.63;59.50
17209;BME280;8720;48.488;9.202;2022-12-18T12:46:31;98048.81;;;3.70;59.38
17209;BME280;8720;48.488;9.202;2022-12-18T12:49:09;98040.09;;;3.65;59.34
17209;BME280;8720;48.488;9.202;2022-12-18T12:51:43;98058.53;;;3.82;59.27
17209;BME280;8720;48.488;9.202;2022-12-18T12:54:20;98052.53;;;3.85;59.26
17209;BME280;8720;48.488;9.202;2022-12-18T12:56:54;98063.78;;;3.87;59.20
17209;BME280;8720;48.488;9.202;2022-12-18T12:59:31;98074.94;;;3.83;58.86
17209;BME280;8720;48.488;9.202;2022-12-18T13:02:17;98073.13;;;3.79;58.77
17209;BME280;8720;48.488;9.202;2022-12-18T13:04:54;98082.53;;;3.74;58.47
17209;BME280;8720;48.488;9.202;2022-12-18T13:07:31;98096.34;;;3.74;58.63
17209;BME280;8720;48.488;9.202;2022-12-18T13:10:26;98090.22;;;3.70;58.49
17209;BME280;8720;48.488;9.202;2022-12-18T13:13:00;98076.28;;;3.62;58.20
17209;BME280;8720;48.488;9.202;2022-12-18T13:15:34;98070.88;;;3.52;58.28
17209;BME280;8720;48.488;9.202;2022-12-18T13:18:13;98082.13;;;3.54;58.08
17209;BME280;8720;48.488;9.202;2022-12-18T13:20:45;98086.34;;;3.49;58.19
17209;BME280;8720;48.488;9.202;2022-12-18T13:23:34;98099.31;;;3.50;58.18
17209;BME280;8720;48.488;9.202;2022-12-18T13:26:29;98103.56;;;3.48;58.22
17209;BME280;8720;48.488;9.202;2022-12-18T13:28:59;98094.09;;;3.49;58.29
17209;BME280;8720;48.488;9.202;2022-12-18T13:32:00;98091.53;;;3.50;58.10
17209;BME280;8720;48.488;9.202;2022-12-18T13:34:29;98089.78;;;3.49;58.36
17209;BME280;8720;48.488;9.202;2022-12-18T13:37:42;98082.94;;;3.51;58.24
17209;BME280;8720;48.488;9.202;2022-12-18T13:40:56;98090.66;;;3.50;58.37
17209;BME280;8720;48.488;9.202;2022-12-18T13:43:30;98084.59;;;3.49;58.25
17209;BME280;8720;48.488;9.202;2022-12-18T13:46:06;98085.50;;;3.50;58.46